Time;durP1;ratioP1;P1;durP2;ratioP2;P2;SDS_P1;SDS_P2;PMS_P1;PMS_P2;Temp;Humidity;BMP_temperature;BMP_pressure;BME280_temperature;BME280_humidity;BME280_pressure;Samples;Min_cycle;Max_cycle;Signal;HPM_P1;HPM_P2
2023/10/08 00:01:19;;;;;;;3.95;3.00;;;19.60;54.60;;;;;;5056308;28;20203;-82
2023/10/08 00:03:48;;;;;;;4.15;3.13;;;19.60;54.50;;;;;;5054909;28;20198;-82
2023/10/08 00:06:16;;;;;;;3.40;2.72;;;19.60;54.50;;;;;;5054988;28;20223;-82
2023/10/08 00:08:43;;;;;;;4.47;3.03;;;19.60;54.70;;;;;;5055152;28;20596;-82
2023/10/08 00:11:11;;;;;;;3.63;3.10;;;19.50;54.60;;;;;;5054993;28;20249;-82
2023/10/08 00:13:41;;;;;;;3.78;3.10;;;19.60;54.70;;;;;;5055254;28;20199;-82
2023/10/08 00:16:10;;;;;;;3.10;2.60;;;19.60;54.60;;;;;;5044798;28;20192;-82
2023/10/08 00:18:40;;;;;;;3.85;3.00;;;19.50;54.50;;;;;;5054891;28;20199;-82
2023/10/08 00:21:17;;;;;;;3.83;2.88;;;19.50;54.70;;;;;;5055091;28;20223;-82
2023/10/08 00:23:49;;;;;;;4.07;3.20;;;19.50;54.60;;;;;;5054514;28;20642;-82
2023/10/08 00:26:18;;;;;;;4.57;3.08;;;19.50;54.80;;;;;;5054482;28;20219;-82
2023/10/08 00:28:47;;;;;;;3.47;2.85;;;19.50;54.80;;;;;;5054939;28;20192;-82
2023/10/08 00:31:17;;;;;;;3.72;2.83;;;19.50;54.60;;;;;;5054484;28;20215;-82
2023/10/08 00:33:45;;;;;;;4.22;3.33;;;19.50;54.60;;;;;;5054475;28;20210;-82
2023/10/08 00:36:19;;;;;;;3.72;2.97;;;19.50;54.70;;;;;;5054501;28;20604;-82
2023/10/08 00:38:49;;;;;;;5.95;3.17;;;19.50;54.80;;;;;;5054515;28;20198;-81
2023/10/08 00:41:16;;;;;;;3.35;3.05;;;19.50;54.70;;;;;;5055049;28;20661;-81
2023/10/08 00:43:45;;;;;;;3.33;2.70;;;19.60;54.80;;;;;;5054386;28;20191;-82
2023/10/08 00:46:22;;;;;;;3.70;3.00;;;19.50;54.70;;;;;;5054323;28;20592;-82
2023/10/08 00:48:52;;;;;;;4.80;3.10;;;19.50;54.60;;;;;;5054558;28;20205;-82
2023/10/08 00:51:31;;;;;;;3.75;2.90;;;19.50;54.70;;;;;;5055617;28;20187;-82
2023/10/08 00:54:05;;;;;;;3.97;2.80;;;19.50;54.80;;;;;;5053991;28;20638;-82
2023/10/08 00:56:46;;;;;;;3.00;2.70;;;19.50;54.90;;;;;;5054282;28;20195;-82
2023/10/08 00:59:15;;;;;;;4.18;3.20;;;19.50;54.80;;;;;;5054193;28;20749;-82
2023/10/08 01:01:51;;;;;;;4.03;3.03;;;19.50;54.90;;;;;;5054136;28;20207;-82
2023/10/08 01:04:22;;;;;;;4.55;3.20;;;19.50;54.80;;;;;;5053986;28;20270;-82
2023/10/08 01:06:53;;;;;;;3.80;2.97;;;19.50;54.90;;;;;;5054918;28;20209;-82
2023/10/08 01:09:27;;;;;;;3.60;2.70;;;19.50;54.90;;;;;;5053307;28;20222;-82
2023/10/08 01:12:08;;;;;;;3.33;2.70;;;19.50;54.90;;;;;;5053969;28;20616;-82
2023/10/08 01:14:36;;;;;;;3.20;2.90;;;19.50;55.00;;;;;;5053570;28;20196;-82
2023/10/08 01:17:05;;;;;;;4.95;3.05;;;19.50;54.90;;;;;;5037341;28;20587;-82
2023/10/08 01:19:38;;;;;;;4.50;2.90;;;19.50;55.00;;;;;;5053475;28;20226;-82
2023/10/08 01:22:13;;;;;;;3.95;2.83;;;19.50;55.00;;;;;;5053860;28;20188;-82
2023/10/08 01:24:40;;;;;;;3.65;2.83;;;19.50;54.90;;;;;;5053349;28;20198;-82
2023/10/08 01:27:11;;;;;;;3.38;2.72;;;19.50;55.00;;;;;;5053381;28;20282;-82
2023/10/08 01:29:39;;;;;;;4.05;2.92;;;19.50;55.00;;;;;;5053967;28;20227;-82
2023/10/08 01:32:11;;;;;;;4.35;2.70;;;19.40;54.80;;;;;;5054459;28;20187;-82
2023/10/08 01:34:45;;;;;;;3.88;3.13;;;19.50;55.50;;;;;;5053853;28;20708;-81
2023/10/08 01:37:15;;;;;;;4.15;2.83;;;19.40;54.90;;;;;;5054344;28;20278;-82
2023/10/08 01:39:42;;;;;;;3.55;2.78;;;19.40;54.90;;;;;;5053797;28;20212;-82
2023/10/08 01:42:16;;;;;;;4.53;2.90;;;19.50;55.10;;;;;;5053061;28;20206;-82
2023/10/08 01:44:45;;;;;;;3.40;2.83;;;19.40;54.90;;;;;;5053141;28;20631;-81
2023/10/08 01:47:13;;;;;;;3.25;2.70;;;19.40;55.00;;;;;;5053246;28;20199;-82
2023/10/08 01:49:42;;;;;;;4.00;3.00;;;19.40;54.90;;;;;;5054448;28;20685;-82
2023/10/08 01:52:14;;;;;;;3.83;2.72;;;19.40;55.00;;;;;;5053637;28;20630;-81
2023/10/08 01:54:44;;;;;;;4.00;2.92;;;19.40;54.90;;;;;;5053249;28;20227;-81
2023/10/08 01:57:12;;;;;;;4.38;2.67;;;19.40;54.90;;;;;;5053448;28;20649;-82
2023/10/08 01:59:39;;;;;;;3.58;2.63;;;19.40;54.80;;;;;;5052840;28;20242;-82
2023/10/08 02:02:06;;;;;;;4.63;3.10;;;19.40;54.80;;;;;;5053920;28;20619;-81
2023/10/08 02:04:35;;;;;;;3.05;2.60;;;19.40;54.80;;;;;;5053310;28;20654;-82
2023/10/08 02:07:07;;;;;;;4.25;3.08;;;19.40;54.80;;;;;;5052978;28;20227;-81
2023/10/08 02:09:35;;;;;;;3.60;2.80;;;19.40;54.90;;;;;;5052932;28;20314;-81
2023/10/08 02:12:04;;;;;;;3.75;3.08;;;19.40;55.00;;;;;;5053230;28;20199;-82
2023/10/08 02:14:31;;;;;;;3.75;2.97;;;19.40;55.00;;;;;;5053120;28;20541;-82
2023/10/08 02:17:01;;;;;;;3.70;3.10;;;19.40;55.10;;;;;;5052845;28;20202;-82
2023/10/08 02:19:28;;;;;;;4.28;2.97;;;19.30;55.00;;;;;;5053248;28;20297;-82
2023/10/08 02:21:55;;;;;;;3.35;3.05;;;19.40;54.90;;;;;;5053042;28;20558;-81
2023/10/08 02:24:23;;;;;;;4.55;2.65;;;19.40;54.80;;;;;;5052964;28;20670;-81
2023/10/08 02:26:52;;;;;;;3.60;2.83;;;19.30;54.80;;;;;;5052632;28;20226;-82
2023/10/08 02:29:21;;;;;;;3.50;2.90;;;19.30;54.80;;;;;;5053428;28;20306;-81
2023/10/08 02:31:48;;;;;;;3.90;2.88;;;19.40;54.70;;;;;;5052715;28;20688;-82
2023/10/08 02:34:16;;;;;;;4.18;3.00;;;19.30;54.70;;;;;;5052481;28;20199;-81
2023/10/08 02:36:43;;;;;;;4.38;3.08;;;19.30;54.80;;;;;;5052578;28;20188;-81
2023/10/08 02:39:20;;;;;;;3.55;2.90;;;19.30;54.80;;;;;;5036029;28;20219;-81
2023/10/08 02:41:48;;;;;;;3.47;2.95;;;19.30;54.60;;;;;;5052581;28;20264;-82
2023/10/08 02:44:16;;;;;;;4.05;2.95;;;19.30;54.50;;;;;;5052359;28;20195;-82
2023/10/08 02:46:47;;;;;;;4.00;2.90;;;19.30;54.80;;;;;;5052550;28;20211;-82
2023/10/08 02:49:19;;;;;;;3.65;2.75;;;19.30;54.80;;;;;;5052269;28;20234;-82
2023/10/08 02:51:47;;;;;;;3.90;3.10;;;19.30;54.70;;;;;;5035883;28;20317;-82
2023/10/08 02:54:17;;;;;;;4.32;3.10;;;19.30;54.80;;;;;;5052381;28;20203;-82
2023/10/08 02:56:46;;;;;;;5.32;2.83;;;19.30;54.70;;;;;;5052405;28;20190;-82
2023/10/08 02:59:14;;;;;;;4.75;3.30;;;19.30;54.60;;;;;;5052522;28;20211;-82
2023/10/08 03:01:41;;;;;;;4.20;2.75;;;19.30;54.60;;;;;;5052861;28;20206;-82
2023/10/08 03:04:18;;;;;;;4.78;3.08;;;19.20;54.60;;;;;;5052223;28;20195;-82
2023/10/08 03:06:49;;;;;;;4.15;3.08;;;19.20;54.50;;;;;;5036948;28;20242;-82
2023/10/08 03:09:20;;;;;;;4.57;3.00;;;19.20;54.50;;;;;;5052125;28;20585;-82
2023/10/08 03:11:49;;;;;;;2.63;2.42;;;19.20;54.50;;;;;;5054445;28;20218;-82
2023/10/08 03:14:21;;;;;;;3.67;2.83;;;19.20;54.60;;;;;;5052133;28;20203;-82
2023/10/08 03:16:49;;;;;;;3.67;3.00;;;19.20;54.80;;;;;;5052143;28;20635;-82
2023/10/08 03:19:19;;;;;;;4.32;2.65;;;19.20;54.50;;;;;;5035736;28;20219;-82
2023/10/08 03:21:54;;;;;;;4.93;3.35;;;19.30;55.00;;;;;;5053295;28;20191;-82
2023/10/08 03:24:36;;;;;;;3.63;2.30;;;19.30;54.40;;;;;;5052453;28;20203;-82
2023/10/08 03:27:07;;;;;;;4.03;2.95;;;19.30;54.50;;;;;;5052230;28;20212;-82
2023/10/08 03:29:40;;;;;;;4.63;2.72;;;19.40;54.80;;;;;;5053378;28;20215;-82
2023/10/08 03:32:14;;;;;;;3.28;2.72;;;19.40;54.80;;;;;;5054837;28;20569;-82
2023/10/08 03:34:46;;;;;;;4.15;2.78;;;19.40;54.30;;;;;;5056987;28;20270;-82
2023/10/08 03:37:19;;;;;;;3.05;2.35;;;19.50;54.20;;;;;;5055920;28;20192;-82
2023/10/08 03:40:00;;;;;;;3.00;2.50;;;19.50;54.40;;;;;;5057405;28;20218;-82
2023/10/08 03:42:34;;;;;;;4.13;2.80;;;19.50;54.20;;;;;;5055634;28;20198;-82
2023/10/08 03:45:09;;;;;;;4.05;3.03;;;19.50;54.50;;;;;;5055507;28;20195;-82
2023/10/08 03:47:38;;;;;;;4.30;2.83;;;19.60;54.20;;;;;;5055645;28;20245;-82
2023/10/08 03:50:09;;;;;;;3.28;2.58;;;19.60;54.20;;;;;;5057011;28;20211;-82
2023/10/08 03:52:38;;;;;;;2.78;2.40;;;19.60;54.20;;;;;;5097088;22;20176;-76
2023/10/08 03:55:13;;;;;;;3.78;3.20;;;19.60;54.00;;;;;;5035135;28;20207;-76
2023/10/08 03:57:46;;;;;;;3.95;2.63;;;19.60;53.80;;;;;;5052728;28;20195;-76
2023/10/08 04:00:18;;;;;;;2.53;2.33;;;19.60;53.50;;;;;;5034979;28;20235;-77
2023/10/08 04:02:54;;;;;;;3.80;2.88;;;19.60;53.90;;;;;;5034946;28;20207;-77
2023/10/08 04:05:27;;;;;;;3.25;2.58;;;19.70;53.40;;;;;;5034928;28;20206;-77
2023/10/08 04:08:16;;;;;;;3.78;2.70;;;19.70;53.30;;;;;;5035286;28;20188;-77
2023/10/08 04:13:48;;;;;;;4.47;2.80;;;19.70;53.30;;;;;;4959283;28;20214;-77
2023/10/08 04:16:18;;;;;;;3.85;2.70;;;19.70;53.10;;;;;;5020333;28;20199;-77
2023/10/08 04:18:50;;;;;;;4.82;2.88;;;19.70;53.10;;;;;;5019217;28;20238;-77
2023/10/08 04:21:20;;;;;;;3.75;2.63;;;19.70;53.40;;;;;;5034890;28;20207;-77
2023/10/08 04:23:52;;;;;;;4.13;3.00;;;19.60;53.40;;;;;;5034701;28;20246;-77
2023/10/08 04:26:23;;;;;;;3.58;2.83;;;19.60;53.60;;;;;;5035757;28;20196;-77
2023/10/08 04:28:54;;;;;;;4.30;2.55;;;19.60;53.60;;;;;;5018192;28;20219;-77
2023/10/08 04:31:24;;;;;;;4.47;2.72;;;19.60;53.70;;;;;;5034643;28;20573;-77
2023/10/08 04:33:52;;;;;;;3.42;2.50;;;19.50;53.60;;;;;;5034699;28;20683;-77
2023/10/08 04:36:20;;;;;;;3.85;2.67;;;19.50;53.70;;;;;;5034321;28;20189;-77
2023/10/08 04:38:48;;;;;;;3.63;2.60;;;19.50;53.80;;;;;;5034769;28;20235;-77
2023/10/08 04:41:19;;;;;;;3.90;2.63;;;19.50;54.00;;;;;;5034337;28;20708;-77
2023/10/08 04:43:49;;;;;;;3.47;2.67;;;19.50;53.80;;;;;;5034118;28;20204;-77
2023/10/08 04:46:34;;;;;;;4.20;2.95;;;19.50;53.90;;;;;;5018251;28;20212;-77
2023/10/08 04:49:05;;;;;;;3.95;2.47;;;19.50;53.80;;;;;;5034094;28;20647;-77
2023/10/08 04:51:43;;;;;;;4.15;2.70;;;19.40;53.80;;;;;;5034226;28;20192;-77
2023/10/08 04:54:16;;;;;;;4.25;2.92;;;19.50;53.90;;;;;;5033904;28;20732;-77
2023/10/08 04:56:44;;;;;;;4.80;2.75;;;19.40;53.90;;;;;;5034156;28;20270;-77
2023/10/08 04:59:11;;;;;;;4.30;2.47;;;19.40;53.90;;;;;;5033930;28;20255;-77
2023/10/08 05:01:47;;;;;;;3.90;2.60;;;19.40;54.00;;;;;;5033932;28;20661;-77
2023/10/08 05:04:26;;;;;;;3.55;2.38;;;19.40;54.00;;;;;;5033898;28;20569;-77
2023/10/08 05:09:46;;;;;;;2.72;2.33;;;19.40;54.10;;;;;;5033569;28;20274;-77
2023/10/08 05:12:30;;;;;;;3.42;2.60;;;19.30;54.00;;;;;;5033773;28;20188;-77
2023/10/08 05:15:21;;;;;;;3.72;2.78;;;19.30;54.20;;;;;;5034227;28;20607;-77
2023/10/08 05:20:59;;;;;;;3.85;2.80;;;19.30;54.10;;;;;;5000891;28;20216;-77
2023/10/08 05:26:20;;;;;;;3.90;2.58;;;19.30;54.10;;;;;;5033324;28;20220;-77
2023/10/08 05:29:00;;;;;;;3.85;2.80;;;19.20;54.20;;;;;;5033425;28;20215;-77
2023/10/08 05:31:46;;;;;;;3.65;2.63;;;19.20;54.20;;;;;;5033342;28;20191;-77
2023/10/08 05:34:22;;;;;;;4.20;3.00;;;19.20;54.30;;;;;;5033386;28;20196;-77
2023/10/08 05:39:42;;;;;;;2.90;2.28;;;19.20;54.30;;;;;;5032886;28;20212;-77
2023/10/08 05:42:13;;;;;;;3.63;2.88;;;19.20;54.50;;;;;;5033141;28;20192;-77
2023/10/08 05:44:45;;;;;;;3.70;2.75;;;19.20;54.30;;;;;;5033132;28;20195;-77
2023/10/08 05:47:38;;;;;;;4.53;2.70;;;19.20;54.40;;;;;;5032980;28;20258;-77
2023/10/08 05:53:01;;;;;;;3.47;2.55;;;19.20;54.40;;;;;;5033052;28;20203;-77
2023/10/08 05:55:42;;;;;;;3.33;2.60;;;19.20;54.50;;;;;;5032528;28;20203;-77
2023/10/08 05:58:24;;;;;;;3.22;2.58;;;19.20;54.40;;;;;;5018022;28;20201;-77
2023/10/08 06:01:08;;;;;;;3.83;2.70;;;19.20;54.20;;;;;;5033139;28;20224;-77
2023/10/08 06:03:48;;;;;;;4.32;2.90;;;19.20;54.30;;;;;;5032793;28;20239;-77
2023/10/08 06:06:35;;;;;;;4.40;2.70;;;19.20;54.40;;;;;;5034511;28;20222;-77
2023/10/08 06:09:21;;;;;;;3.50;2.58;;;19.20;54.40;;;;;;5033256;28;20203;-77
2023/10/08 06:15:06;;;;;;;3.25;2.65;;;19.20;54.30;;;;;;5032809;28;20253;-77
2023/10/08 06:17:55;;;;;;;4.70;2.75;;;19.20;54.30;;;;;;5032738;28;20188;-77
2023/10/08 06:20:26;;;;;;;4.38;2.65;;;19.20;54.30;;;;;;5032619;28;20226;-77
2023/10/08 06:22:58;;;;;;;3.85;2.90;;;19.20;54.20;;;;;;5032711;28;20203;-77
2023/10/08 06:25:28;;;;;;;4.65;2.72;;;19.20;54.30;;;;;;5033191;28;20199;-77
2023/10/08 06:27:57;;;;;;;4.78;2.65;;;19.20;54.40;;;;;;5032724;28;20219;-78
2023/10/08 06:30:28;;;;;;;4.47;3.13;;;19.20;54.10;;;;;;5032438;28;20220;-78
2023/10/08 06:32:57;;;;;;;3.72;2.90;;;19.20;54.00;;;;;;5032516;28;20319;-78
2023/10/08 06:35:28;;;;;;;4.20;2.75;;;19.30;54.40;;;;;;5032356;28;20203;-78
2023/10/08 06:38:01;;;;;;;3.47;2.88;;;19.20;54.30;;;;;;5032407;28;20636;-78
2023/10/08 06:40:43;;;;;;;3.47;2.80;;;19.20;54.40;;;;;;5032572;28;20242;-78
2023/10/08 06:43:16;;;;;;;6.35;2.72;;;19.20;54.40;;;;;;5032863;28;20198;-78
2023/10/08 06:45:44;;;;;;;2.90;2.60;;;19.20;54.50;;;;;;5033497;28;20196;-78
2023/10/08 06:48:18;;;;;;;4.45;2.92;;;19.20;54.50;;;;;;5032138;28;20212;-78
2023/10/08 06:50:45;;;;;;;3.75;2.75;;;19.20;54.40;;;;;;5016836;28;20220;-78
2023/10/08 06:53:13;;;;;;;3.95;2.50;;;19.30;54.60;;;;;;5032534;28;20254;-78
2023/10/08 06:55:41;;;;;;;3.20;2.83;;;19.30;54.40;;;;;;5032156;28;20208;-78
2023/10/08 06:58:09;;;;;;;3.72;2.45;;;19.30;54.40;;;;;;5032306;28;20613;-78
2023/10/08 07:00:46;;;;;;;3.80;2.75;;;19.30;54.40;;;;;;5032145;28;20266;-78
2023/10/08 07:03:14;;;;;;;3.55;2.60;;;19.30;54.30;;;;;;5032177;28;20223;-78
2023/10/08 07:05:44;;;;;;;4.03;2.88;;;19.30;54.50;;;;;;5033437;28;20204;-78
2023/10/08 07:08:13;;;;;;;3.50;2.83;;;19.30;54.40;;;;;;5036198;28;20732;-78
2023/10/08 07:10:42;;;;;;;3.55;2.50;;;19.30;54.40;;;;;;5036298;28;20285;-77
2023/10/08 07:13:10;;;;;;;3.28;2.55;;;19.40;54.50;;;;;;5036283;28;20208;-77
2023/10/08 07:15:41;;;;;;;2.92;2.58;;;19.40;54.40;;;;;;5035946;28;20543;-77
2023/10/08 07:18:12;;;;;;;2.85;2.50;;;19.40;54.40;;;;;;5035931;28;20188;-77
2023/10/08 07:20:41;;;;;;;3.22;2.53;;;19.50;54.40;;;;;;5037188;28;20544;-77
2023/10/08 07:23:18;;;;;;;4.13;2.75;;;19.60;54.20;;;;;;5035954;28;20291;-77
2023/10/08 07:25:53;;;;;;;4.50;2.80;;;19.60;54.20;;;;;;5035741;28;20195;-77
2023/10/08 07:28:20;;;;;;;4.53;2.95;;;19.60;54.20;;;;;;5035491;28;20678;-77
2023/10/08 07:30:49;;;;;;;4.40;2.70;;;19.70;54.30;;;;;;5035509;28;20706;-77
2023/10/08 07:33:19;;;;;;;3.38;2.67;;;19.70;54.30;;;;;;5036952;28;20661;-77
2023/10/08 07:35:57;;;;;;;3.63;2.72;;;19.70;54.10;;;;;;5036172;28;20203;-77
2023/10/08 07:38:28;;;;;;;3.10;2.38;;;19.80;54.10;;;;;;5035743;28;20199;-77
2023/10/08 07:40:56;;;;;;;3.38;2.55;;;19.90;54.10;;;;;;5035395;28;20311;-77
2023/10/08 07:43:24;;;;;;;4.20;2.90;;;19.90;54.00;;;;;;5036194;28;20196;-77
2023/10/08 07:45:54;;;;;;;3.95;2.80;;;19.90;54.00;;;;;;5035363;28;20192;-77
2023/10/08 07:48:22;;;;;;;2.90;2.47;;;20.00;53.80;;;;;;5035211;28;20215;-77
2023/10/08 07:50:50;;;;;;;3.47;2.40;;;20.00;53.60;;;;;;5018943;28;20213;-77
2023/10/08 07:53:20;;;;;;;4.47;2.83;;;20.00;53.80;;;;;;5036315;28;20721;-77
2023/10/08 07:55:48;;;;;;;3.95;2.78;;;20.00;53.60;;;;;;5034972;28;20196;-77
2023/10/08 07:58:16;;;;;;;3.25;2.75;;;20.10;53.60;;;;;;5035405;28;20196;-77
2023/10/08 08:00:51;;;;;;;2.50;2.30;;;20.10;53.50;;;;;;5035268;28;20220;-77
2023/10/08 08:03:21;;;;;;;3.80;2.80;;;20.20;53.40;;;;;;5035942;28;20195;-78
2023/10/08 08:05:49;;;;;;;3.97;2.90;;;20.20;53.40;;;;;;5036390;28;20184;-78
2023/10/08 08:08:17;;;;;;;3.28;2.55;;;20.20;53.30;;;;;;5034882;28;20258;-78
2023/10/08 08:10:45;;;;;;;4.25;2.92;;;20.30;53.20;;;;;;5034999;28;20220;-78
2023/10/08 08:13:14;;;;;;;3.45;2.90;;;20.30;53.20;;;;;;5018508;28;20208;-78
2023/10/08 08:15:43;;;;;;;3.85;2.78;;;20.30;53.00;;;;;;5035355;28;20196;-78
2023/10/08 08:18:21;;;;;;;3.58;2.60;;;20.40;53.10;;;;;;5034353;28;20208;-78
2023/10/08 08:20:49;;;;;;;3.17;2.50;;;20.40;53.00;;;;;;5035370;28;20627;-78
2023/10/08 08:23:17;;;;;;;4.07;3.10;;;20.40;53.00;;;;;;5035167;28;20199;-78
2023/10/08 08:26:05;;;;;;;4.72;2.88;;;20.40;52.90;;;;;;5036547;28;20275;-78
2023/10/08 08:28:32;;;;;;;4.35;2.92;;;20.50;52.80;;;;;;5034640;28;20208;-78
2023/10/08 08:31:04;;;;;;;3.53;2.72;;;20.60;52.30;;;;;;5034678;28;20219;-78
2023/10/08 08:33:52;;;;;;;3.78;2.80;;;20.70;52.50;;;;;;5034737;28;20574;-78
2023/10/08 08:36:20;;;;;;;2.55;2.33;;;20.80;52.50;;;;;;5034874;28;20200;-78
2023/10/08 08:38:47;;;;;;;3.88;2.88;;;20.90;52.30;;;;;;5034609;28;20196;-78
2023/10/08 08:41:17;;;;;;;2.92;2.45;;;21.10;52.10;;;;;;5034271;28;20641;-78
2023/10/08 08:43:48;;;;;;;3.35;2.65;;;21.20;51.70;;;;;;5018191;28;20224;-78
2023/10/08 08:46:14;;;;;;;3.08;2.47;;;21.30;51.50;;;;;;5034377;28;20663;-78
2023/10/08 08:48:44;;;;;;;3.78;2.50;;;21.40;51.30;;;;;;5034434;28;20216;-78
2023/10/08 08:51:11;;;;;;;2.78;2.25;;;21.50;51.30;;;;;;5041190;28;20212;-78
2023/10/08 08:53:40;;;;;;;3.22;2.58;;;21.60;51.00;;;;;;5034349;28;20212;-77
2023/10/08 08:56:10;;;;;;;3.75;2.80;;;21.70;50.70;;;;;;5034018;28;20266;-77
2023/10/08 08:58:37;;;;;;;3.97;2.90;;;21.90;50.50;;;;;;5033924;28;20191;-77
2023/10/08 09:01:07;;;;;;;3.60;2.60;;;22.00;50.20;;;;;;5034024;28;20220;-77
2023/10/08 09:03:37;;;;;;;2.75;2.42;;;22.00;49.90;;;;;;5034002;28;20188;-77
2023/10/08 09:06:04;;;;;;;3.47;2.50;;;22.10;49.90;;;;;;5033835;28;20544;-77
2023/10/08 09:08:34;;;;;;;2.90;2.30;;;22.10;50.00;;;;;;5017552;28;20216;-77
2023/10/08 09:11:04;;;;;;;3.20;2.50;;;22.00;49.90;;;;;;5033811;28;20220;-77
2023/10/08 09:13:32;;;;;;;3.08;2.55;;;21.90;49.90;;;;;;5033887;28;20654;-77
2023/10/08 09:16:09;;;;;;;3.58;2.45;;;21.90;50.00;;;;;;5033883;28;20204;-77
2023/10/08 09:18:36;;;;;;;3.70;2.78;;;21.90;50.10;;;;;;5033806;28;20188;-77
2023/10/08 09:21:11;;;;;;;2.67;2.22;;;22.00;50.10;;;;;;5033492;28;20720;-78
2023/10/08 09:23:44;;;;;;;3.17;2.30;;;22.00;50.00;;;;;;5033672;28;20200;-78
2023/10/08 09:26:14;;;;;;;2.70;2.42;;;22.00;49.90;;;;;;5033854;28;20291;-78
2023/10/08 09:28:46;;;;;;;3.17;2.70;;;22.10;49.90;;;;;;5032986;28;20220;-78
2023/10/08 09:31:13;;;;;;;3.00;2.50;;;22.10;49.70;;;;;;5034490;28;20616;-78
2023/10/08 09:33:41;;;;;;;3.28;2.58;;;22.10;49.60;;;;;;5033759;28;20211;-78
2023/10/08 09:36:10;;;;;;;4.93;2.70;;;22.10;49.70;;;;;;5034384;28;20210;-78
2023/10/08 09:38:37;;;;;;;2.92;2.40;;;22.10;49.70;;;;;;5035029;28;20216;-78
2023/10/08 09:41:08;;;;;;;3.00;2.30;;;22.10;49.70;;;;;;5034261;28;20274;-77
2023/10/08 09:43:38;;;;;;;3.13;2.58;;;22.00;49.70;;;;;;5037874;28;20184;-77
2023/10/08 09:46:10;;;;;;;3.10;2.45;;;22.00;49.70;;;;;;5033762;28;20200;-77
2023/10/08 09:48:38;;;;;;;2.40;2.20;;;22.00;49.70;;;;;;5033212;28;20625;-77
2023/10/08 09:51:06;;;;;;;2.75;2.30;;;22.00;49.80;;;;;;5033380;28;20311;-77
2023/10/08 09:53:41;;;;;;;2.50;2.20;;;22.00;49.70;;;;;;5074452;22;20227;-83
2023/10/08 09:56:15;;;;;;;2.60;2.40;;;22.00;49.80;;;;;;5034744;28;20191;-83
2023/10/08 09:58:44;;;;;;;2.67;2.17;;;22.00;49.80;;;;;;5033338;28;20196;-83
2023/10/08 10:01:11;;;;;;;3.00;2.22;;;22.00;49.80;;;;;;5017014;28;20220;-83
2023/10/08 10:03:39;;;;;;;3.28;2.60;;;21.90;49.90;;;;;;5034273;28;20197;-83
2023/10/08 10:06:18;;;;;;;2.45;2.05;;;22.00;50.20;;;;;;5033420;28;20216;-83
2023/10/08 10:08:46;;;;;;;2.58;2.30;;;21.90;50.20;;;;;;5033033;28;20295;-83
2023/10/08 10:11:15;;;;;;;3.55;2.67;;;21.80;50.20;;;;;;5032966;28;20216;-83
2023/10/08 10:13:47;;;;;;;3.20;2.63;;;21.90;50.20;;;;;;5033280;28;20199;-83
2023/10/08 10:16:18;;;;;;;3.20;2.60;;;21.90;50.10;;;;;;5033559;28;20227;-83
2023/10/08 10:18:46;;;;;;;3.92;2.40;;;21.90;50.00;;;;;;5033242;28;20192;-83
2023/10/08 10:21:35;;;;;;;3.17;2.47;;;22.00;50.00;;;;;;5033119;28;20682;-83
2023/10/08 10:24:05;;;;;;;3.00;2.50;;;22.00;49.90;;;;;;5032827;28;20195;-83
2023/10/08 10:26:33;;;;;;;2.53;2.33;;;22.10;49.90;;;;;;5033581;28;20200;-83
2023/10/08 10:29:22;;;;;;;2.85;2.22;;;22.10;49.80;;;;;;5033092;28;20223;-83
2023/10/08 10:31:53;;;;;;;2.10;1.90;;;22.10;49.70;;;;;;5034487;28;20662;-83
2023/10/08 10:34:21;;;;;;;2.90;2.40;;;22.10;49.70;;;;;;5033028;28;20200;-81
2023/10/08 10:36:55;;;;;;;3.38;2.50;;;22.10;49.70;;;;;;5032906;28;20573;-82
2023/10/08 10:39:27;;;;;;;2.88;2.33;;;22.20;49.70;;;;;;5016415;28;20292;-82
2023/10/08 10:41:57;;;;;;;3.10;2.53;;;22.20;49.60;;;;;;5042310;28;20191;-82
2023/10/08 10:44:26;;;;;;;3.47;2.40;;;22.20;49.60;;;;;;5036779;28;20663;-82
2023/10/08 10:47:25;;;;;;;2.97;2.45;;;22.20;49.50;;;;;;5037430;28;20659;-82
2023/10/08 10:49:47;;;;;;;2.80;2.30;;;22.20;49.50;;;;;;5036733;28;20310;-82
2023/10/08 10:52:18;;;;;;;4.70;2.28;;;22.20;49.50;;;;;;5038542;28;20646;-82
2023/10/08 10:54:57;;;;;;;2.88;2.45;;;22.30;49.50;;;;;;5037810;28;20200;-82
2023/10/08 10:57:34;;;;;;;3.38;2.30;;;22.20;49.40;;;;;;5040156;28;20226;-82
2023/10/08 11:00:46;;;;;;;2.97;2.05;;;22.20;49.40;;;;;;5038376;28;20249;-82
2023/10/08 11:02:56;;;;;;;2.75;2.28;;;22.20;49.50;;;;;;5037578;28;20199;-82
2023/10/08 11:05:28;;;;;;;2.75;2.45;;;22.20;49.40;;;;;;5037125;28;20184;-82
2023/10/08 11:07:58;;;;;;;2.45;2.22;;;22.20;49.50;;;;;;5038504;28;20262;-82
2023/10/08 11:10:24;;;;;;;2.83;2.50;;;22.20;49.50;;;;;;5022529;28;20558;-82
2023/10/08 11:12:54;;;;;;;2.92;2.30;;;22.30;49.50;;;;;;5039068;28;20658;-82
2023/10/08 11:15:23;;;;;;;2.45;2.03;;;22.20;49.40;;;;;;5039770;28;20192;-82
2023/10/08 11:17:52;;;;;;;2.45;2.10;;;22.30;49.50;;;;;;5039200;28;20742;-82
2023/10/08 11:20:25;;;;;;;3.03;2.22;;;22.30;49.50;;;;;;5039995;28;20270;-82
2023/10/08 11:22:53;;;;;;;2.85;2.28;;;22.20;49.40;;;;;;5038278;28;20549;-82
2023/10/08 11:25:24;;;;;;;2.67;2.20;;;22.20;49.40;;;;;;5038870;28;20204;-82
2023/10/08 11:27:58;;;;;;;2.63;2.28;;;22.30;49.50;;;;;;5038412;28;20216;-82
2023/10/08 11:30:30;;;;;;;2.42;2.10;;;22.30;49.50;;;;;;5038587;28;20683;-82
2023/10/08 11:32:59;;;;;;;2.88;2.40;;;22.30;50.10;;;;;;5038890;28;20220;-82
2023/10/08 11:35:27;;;;;;;2.45;2.25;;;22.20;49.50;;;;;;5037583;28;20302;-82
2023/10/08 11:37:58;;;;;;;3.00;2.25;;;22.30;49.50;;;;;;5037339;28;20239;-82
2023/10/08 11:40:28;;;;;;;3.28;2.50;;;22.30;49.50;;;;;;5038080;28;20216;-82
2023/10/08 11:42:56;;;;;;;2.97;2.47;;;22.30;49.50;;;;;;5038842;28;20204;-82
2023/10/08 11:45:28;;;;;;;2.40;2.13;;;22.30;50.00;;;;;;5037182;28;20232;-82
2023/10/08 11:47:56;;;;;;;2.53;2.33;;;22.30;49.40;;;;;;5039096;28;20216;-82
2023/10/08 11:50:30;;;;;;;2.20;2.00;;;22.30;49.40;;;;;;5022528;28;20219;-82
2023/10/08 11:53:01;;;;;;;2.58;2.15;;;22.40;49.50;;;;;;5037774;28;20612;-82
2023/10/08 11:55:28;;;;;;;2.30;2.10;;;22.40;49.50;;;;;;5039238;28;20219;-82
2023/10/08 11:57:57;;;;;;;2.50;2.30;;;22.30;49.40;;;;;;5006465;28;20570;-82
2023/10/08 12:00:25;;;;;;;2.30;2.10;;;22.40;49.50;;;;;;5038870;28;20633;-82
2023/10/08 12:02:54;;;;;;;2.88;2.30;;;22.40;49.50;;;;;;5038180;28;20273;-82
2023/10/08 12:05:23;;;;;;;2.92;2.47;;;22.40;49.50;;;;;;5038306;28;20250;-82
2023/10/08 12:07:51;;;;;;;3.45;2.30;;;22.40;49.50;;;;;;5038007;28;20287;-82
2023/10/08 12:10:22;;;;;;;3.03;2.33;;;22.40;49.50;;;;;;5038636;28;20227;-82
2023/10/08 12:12:52;;;;;;;2.40;2.20;;;22.40;49.50;;;;;;5037315;28;20207;-82
2023/10/08 12:15:20;;;;;;;3.03;2.33;;;22.40;49.50;;;;;;5036838;28;20196;-82
2023/10/08 12:18:08;;;;;;;2.88;2.25;;;22.40;49.40;;;;;;5036413;28;20204;-82
2023/10/08 12:20:38;;;;;;;2.88;2.38;;;22.50;49.50;;;;;;5025130;28;20278;-82
2023/10/08 12:23:05;;;;;;;2.17;1.98;;;22.50;49.50;;;;;;5035055;28;20216;-82
2023/10/08 12:25:33;;;;;;;2.38;2.10;;;22.40;49.40;;;;;;5036143;28;20223;-82
2023/10/08 12:28:03;;;;;;;2.20;2.00;;;22.50;49.50;;;;;;5035116;28;20250;-82
2023/10/08 12:30:31;;;;;;;2.35;2.10;;;22.40;49.50;;;;;;5018967;28;20566;-82
2023/10/08 12:32:59;;;;;;;2.45;2.17;;;22.40;49.50;;;;;;5035168;28;20208;-82
2023/10/08 12:35:29;;;;;;;2.08;1.90;;;22.40;49.50;;;;;;5034885;28;20207;-81
2023/10/08 12:37:57;;;;;;;2.47;2.20;;;22.40;49.50;;;;;;5034979;28;20207;-81
2023/10/08 12:40:31;;;;;;;2.10;1.90;;;22.40;49.60;;;;;;5034950;28;20262;-81
2023/10/08 12:42:59;;;;;;;2.88;2.25;;;22.40;49.60;;;;;;5034683;28;20200;-81
2023/10/08 12:45:27;;;;;;;2.38;1.95;;;22.50;49.70;;;;;;5018635;28;20254;-81
2023/10/08 12:47:54;;;;;;;2.55;2.03;;;22.50;49.60;;;;;;5034726;28;20204;-81
2023/10/08 12:50:29;;;;;;;3.28;2.20;;;22.50;49.60;;;;;;5034483;28;20269;-81
2023/10/08 12:52:57;;;;;;;2.72;2.10;;;22.50;49.60;;;;;;5034345;28;20235;-81
2023/10/08 12:55:24;;;;;;;2.40;2.10;;;22.50;49.50;;;;;;5036288;28;20202;-81
2023/10/08 12:57:55;;;;;;;2.13;1.92;;;22.60;49.60;;;;;;5049054;28;20234;-81
2023/10/08 13:00:24;;;;;;;2.50;2.28;;;22.50;49.50;;;;;;5051932;28;20351;-82
2023/10/08 13:02:53;;;;;;;2.30;2.10;;;22.50;49.50;;;;;;5056626;28;20185;-82
2023/10/08 13:05:27;;;;;;;2.30;2.00;;;22.50;49.50;;;;;;5035577;28;20197;-82
2023/10/08 13:07:56;;;;;;;2.22;2.00;;;22.50;49.50;;;;;;5034694;28;20196;-82
2023/10/08 13:10:24;;;;;;;2.38;1.90;;;22.60;49.60;;;;;;5033908;28;20226;-82
2023/10/08 13:12:50;;;;;;;2.60;2.08;;;22.60;49.50;;;;;;5017689;28;20262;-82
2023/10/08 13:15:18;;;;;;;2.38;2.00;;;22.50;49.40;;;;;;5033870;28;20200;-82
2023/10/08 13:17:45;;;;;;;2.45;2.03;;;22.60;49.50;;;;;;5034088;28;20196;-82
2023/10/08 13:20:13;;;;;;;2.47;2.00;;;22.60;49.50;;;;;;5033699;28;20295;-82
2023/10/08 13:22:40;;;;;;;2.67;2.20;;;22.60;49.50;;;;;;5035443;28;20207;-82
2023/10/08 13:25:09;;;;;;;3.28;2.25;;;22.60;49.50;;;;;;5039529;28;20198;-82
2023/10/08 13:27:38;;;;;;;2.58;2.08;;;22.60;49.50;;;;;;5035050;28;20286;-82
2023/10/08 13:30:08;;;;;;;2.22;1.90;;;22.60;49.50;;;;;;5017800;28;20244;-82